sensor_id;sensor_type;location;lat;lon;timestamp;temperature;humidity
52531;DHT22;38441;52.894;6.040;2024-01-30T00:04:16;6.80;99.90
52531;DHT22;38441;52.894;6.040;2024-01-30T00:06:43;6.80;99.90
52531;DHT22;38441;52.894;6.040;2024-01-30T00:09:09;6.70;99.90
52531;DHT22;38441;52.894;6.040;2024-01-30T00:11:36;6.80;99.90
52531;DHT22;38441;52.894;6.040;2024-01-30T00:14:02;6.70;99.90
52531;DHT22;38441;52.894;6.040;2024-01-30T00:18:55;6.70;99.90
52531;DHT22;38441;52.894;6.040;2024-01-30T00:21:21;6.70;99.90
52531;DHT22;38441;52.894;6.040;2024-01-30T00:28:43;6.60;99.90
52531;DHT22;38441;52.894;6.040;2024-01-30T00:33:41;6.70;99.90
52531;DHT22;38441;52.894;6.040;2024-01-30T00:36:09;6.70;99.90
52531;DHT22;38441;52.894;6.040;2024-01-30T00:43:30;6.60;99.90
52531;DHT22;38441;52.894;6.040;2024-01-30T00:45:56;6.60;99.90
52531;DHT22;38441;52.894;6.040;2024-01-30T00:48:23;6.70;99.90
52531;DHT22;38441;52.894;6.040;2024-01-30T00:55:41;6.60;99.90
52531;DHT22;38441;52.894;6.040;2024-01-30T00:58:06;6.60;99.90
52531;DHT22;38441;52.894;6.040;2024-01-30T01:00:32;6.70;99.90
52531;DHT22;38441;52.894;6.040;2024-01-30T01:02:58;6.60;99.90
52531;DHT22;38441;52.894;6.040;2024-01-30T01:05:25;6.60;99.90
52531;DHT22;38441;52.894;6.040;2024-01-30T01:07:51;6.70;99.90
52531;DHT22;38441;52.894;6.040;2024-01-30T01:10:16;6.60;99.90
52531;DHT22;38441;52.894;6.040;2024-01-30T01:12:43;6.60;99.90
52531;DHT22;38441;52.894;6.040;2024-01-30T01:15:08;6.60;99.90
52531;DHT22;38441;52.894;6.040;2024-01-30T01:17:38;6.60;99.90
52531;DHT22;38441;52.894;6.040;2024-01-30T01:20:05;6.60;99.90
52531;DHT22;38441;52.894;6.040;2024-01-30T01:22:32;6.60;99.90
52531;DHT22;38441;52.894;6.040;2024-01-30T01:27:24;6.50;99.90
52531;DHT22;38441;52.894;6.040;2024-01-30T01:32:16;6.50;99.90
52531;DHT22;38441;52.894;6.040;2024-01-30T01:34:42;6.40;99.90
52531;DHT22;38441;52.894;6.040;2024-01-30T01:46:52;6.40;99.90
52531;DHT22;38441;52.894;6.040;2024-01-30T01:49:19;6.40;99.90
52531;DHT22;38441;52.894;6.040;2024-01-30T01:51:47;6.50;99.90
52531;DHT22;38441;52.894;6.040;2024-01-30T01:54:14;6.40;99.90
52531;DHT22;38441;52.894;6.040;2024-01-30T01:56:42;6.50;99.90
52531;DHT22;38441;52.894;6.040;2024-01-30T01:59:09;6.50;99.90
52531;DHT22;38441;52.894;6.040;2024-01-30T02:01:38;6.50;99.90
52531;DHT22;38441;52.894;6.040;2024-01-30T02:04:04;6.40;99.90
52531;DHT22;38441;52.894;6.040;2024-01-30T02:11:22;6.30;99.90
52531;DHT22;38441;52.894;6.040;2024-01-30T02:13:49;6.50;99.90
52531;DHT22;38441;52.894;6.040;2024-01-30T02:16:15;6.40;99.90
52531;DHT22;38441;52.894;6.040;2024-01-30T02:21:14;6.20;99.90
52531;DHT22;38441;52.894;6.040;2024-01-30T02:23:39;6.40;99.90
52531;DHT22;38441;52.894;6.040;2024-01-30T02:26:06;6.30;99.90
52531;DHT22;38441;52.894;6.040;2024-01-30T02:28:31;6.30;99.90
52531;DHT22;38441;52.894;6.040;2024-01-30T02:30:57;6.30;99.90
52531;DHT22;38441;52.894;6.040;2024-01-30T02:33:23;6.30;99.90
52531;DHT22;38441;52.894;6.040;2024-01-30T02:38:15;6.50;99.90
52531;DHT22;38441;52.894;6.040;2024-01-30T02:40:42;6.30;99.90
52531;DHT22;38441;52.894;6.040;2024-01-30T02:43:07;6.30;99.90
52531;DHT22;38441;52.894;6.040;2024-01-30T02:45:33;6.40;99.90
52531;DHT22;38441;52.894;6.040;2024-01-30T02:47:59;6.30;99.90
52531;DHT22;38441;52.894;6.040;2024-01-30T02:55:16;6.30;99.90
52531;DHT22;38441;52.894;6.040;2024-01-30T03:00:11;6.20;99.90
52531;DHT22;38441;52.894;6.040;2024-01-30T03:02:37;6.40;99.90
52531;DHT22;38441;52.894;6.040;2024-01-30T03:05:04;6.40;99.90
52531;DHT22;38441;52.894;6.040;2024-01-30T03:07:30;6.30;99.90
52531;DHT22;38441;52.894;6.040;2024-01-30T03:09:55;6.30;99.90
52531;DHT22;38441;52.894;6.040;2024-01-30T03:12:22;6.40;99.90
52531;DHT22;38441;52.894;6.040;2024-01-30T03:14:47;6.40;99.90
52531;DHT22;38441;52.894;6.040;2024-01-30T03:17:14;6.40;99.90
52531;DHT22;38441;52.894;6.040;2024-01-30T03:24:32;6.30;99.90
52531;DHT22;38441;52.894;6.040;2024-01-30T03:26:58;6.50;99.90
52531;DHT22;38441;52.894;6.040;2024-01-30T03:29:23;6.50;99.90
52531;DHT22;38441;52.894;6.040;2024-01-30T03:39:08;6.60;99.90
52531;DHT22;38441;52.894;6.040;2024-01-30T03:53:44;6.60;99.90
52531;DHT22;38441;52.894;6.040;2024-01-30T03:56:11;6.70;99.90
52531;DHT22;38441;52.894;6.040;2024-01-30T03:58:38;6.50;99.90
52531;DHT22;38441;52.894;6.040;2024-01-30T04:05:57;6.60;99.90
52531;DHT22;38441;52.894;6.040;2024-01-30T04:08:22;6.60;99.90
52531;DHT22;38441;52.894;6.040;2024-01-30T04:10:48;6.50;99.90
52531;DHT22;38441;52.894;6.040;2024-01-30T04:32:43;6.70;99.90
52531;DHT22;38441;52.894;6.040;2024-01-30T04:35:09;6.70;99.90
52531;DHT22;38441;52.894;6.040;2024-01-30T04:42:27;6.80;99.90
52531;DHT22;38441;52.894;6.040;2024-01-30T04:52:10;6.80;99.90
52531;DHT22;38441;52.894;6.040;2024-01-30T04:54:36;6.70;99.90
52531;DHT22;38441;52.894;6.040;2024-01-30T04:57:02;6.80;99.90
52531;DHT22;38441;52.894;6.040;2024-01-30T04:59:28;6.80;99.90
52531;DHT22;38441;52.894;6.040;2024-01-30T05:01:54;6.90;99.90
52531;DHT22;38441;52.894;6.040;2024-01-30T05:04:20;6.80;99.90
52531;DHT22;38441;52.894;6.040;2024-01-30T05:11:41;6.80;99.90
52531;DHT22;38441;52.894;6.040;2024-01-30T05:14:07;6.80;99.90
52531;DHT22;38441;52.894;6.040;2024-01-30T05:16:34;6.80;99.90
52531;DHT22;38441;52.894;6.040;2024-01-30T05:19:00;6.90;99.90
52531;DHT22;38441;52.894;6.040;2024-01-30T05:21:26;6.80;99.90
52531;DHT22;38441;52.894;6.040;2024-01-30T05:26:17;6.80;99.90
52531;DHT22;38441;52.894;6.040;2024-01-30T05:33:40;6.80;99.90
52531;DHT22;38441;52.894;6.040;2024-01-30T05:36:06;7.00;99.90
52531;DHT22;38441;52.894;6.040;2024-01-30T05:40:58;6.80;99.90
52531;DHT22;38441;52.894;6.040;2024-01-30T05:43:24;6.80;99.90
52531;DHT22;38441;52.894;6.040;2024-01-30T05:45:50;6.90;99.90
52531;DHT22;38441;52.894;6.040;2024-01-30T05:48:16;6.80;99.90
52531;DHT22;38441;52.894;6.040;2024-01-30T05:50:42;6.80;99.90
52531;DHT22;38441;52.894;6.040;2024-01-30T05:57:59;6.80;99.90
52531;DHT22;38441;52.894;6.040;2024-01-30T06:02:51;6.80;99.90
52531;DHT22;38441;52.894;6.040;2024-01-30T06:05:17;6.90;99.90
52531;DHT22;38441;52.894;6.040;2024-01-30T06:07:42;6.80;99.90
52531;DHT22;38441;52.894;6.040;2024-01-30T06:10:08;6.90;99.90
52531;DHT22;38441;52.894;6.040;2024-01-30T06:12:35;6.90;99.90
52531;DHT22;38441;52.894;6.040;2024-01-30T06:15:01;7.00;99.90
52531;DHT22;38441;52.894;6.040;2024-01-30T06:19:53;6.80;99.90
52531;DHT22;38441;52.894;6.040;2024-01-30T06:22:18;7.00;99.90
52531;DHT22;38441;52.894;6.040;2024-01-30T06:24:45;6.90;99.90
52531;DHT22;38441;52.894;6.040;2024-01-30T06:27:13;6.90;99.90
52531;DHT22;38441;52.894;6.040;2024-01-30T06:29:39;6.90;99.90
52531;DHT22;38441;52.894;6.040;2024-01-30T06:32:05;6.90;99.90
52531;DHT22;38441;52.894;6.040;2024-01-30T06:34:31;7.00;99.90
52531;DHT22;38441;52.894;6.040;2024-01-30T06:36:57;6.90;99.90
52531;DHT22;38441;52.894;6.040;2024-01-30T06:44:14;7.00;99.90
52531;DHT22;38441;52.894;6.040;2024-01-30T07:01:17;7.00;99.90
52531;DHT22;38441;52.894;6.040;2024-01-30T07:06:09;7.10;99.90
52531;DHT22;38441;52.894;6.040;2024-01-30T07:11:05;7.20;99.90
52531;DHT22;38441;52.894;6.040;2024-01-30T07:13:32;7.10;99.90
52531;DHT22;38441;52.894;6.040;2024-01-30T07:15:58;7.20;99.90
52531;DHT22;38441;52.894;6.040;2024-01-30T07:18:23;7.10;99.90
52531;DHT22;38441;52.894;6.040;2024-01-30T07:20:49;7.20;99.90
52531;DHT22;38441;52.894;6.040;2024-01-30T07:23:16;7.20;99.90
52531;DHT22;38441;52.894;6.040;2024-01-30T07:25:46;7.20;99.90
52531;DHT22;38441;52.894;6.040;2024-01-30T07:28:15;7.20;99.90
52531;DHT22;38441;52.894;6.040;2024-01-30T07:30:44;7.30;99.90
52531;DHT22;38441;52.894;6.040;2024-01-30T07:33:09;7.30;99.90
52531;DHT22;38441;52.894;6.040;2024-01-30T07:35:36;7.20;99.90
52531;DHT22;38441;52.894;6.040;2024-01-30T07:38:01;7.20;99.90
52531;DHT22;38441;52.894;6.040;2024-01-30T07:42:54;7.30;99.90
52531;DHT22;38441;52.894;6.040;2024-01-30T07:45:20;7.40;99.90
52531;DHT22;38441;52.894;6.040;2024-01-30T07:50:16;7.30;99.90
52531;DHT22;38441;52.894;6.040;2024-01-30T07:52:45;7.40;99.90
52531;DHT22;38441;52.894;6.040;2024-01-30T07:57:41;7.40;99.90
52531;DHT22;38441;52.894;6.040;2024-01-30T08:00:07;7.40;99.90
52531;DHT22;38441;52.894;6.040;2024-01-30T08:02:33;7.50;99.90
52531;DHT22;38441;52.894;6.040;2024-01-30T08:04:58;7.40;99.90
52531;DHT22;38441;52.894;6.040;2024-01-30T08:07:24;7.50;99.90
52531;DHT22;38441;52.894;6.040;2024-01-30T08:12:16;7.50;99.90
52531;DHT22;38441;52.894;6.040;2024-01-30T08:14:42;7.50;99.90
52531;DHT22;38441;52.894;6.040;2024-01-30T08:17:08;7.40;99.90
52531;DHT22;38441;52.894;6.040;2024-01-30T08:31:43;7.60;99.90
52531;DHT22;38441;52.894;6.040;2024-01-30T08:34:11;7.70;99.90
52531;DHT22;38441;52.894;6.040;2024-01-30T08:36:36;7.70;99.90
52531;DHT22;38441;52.894;6.040;2024-01-30T08:39:02;7.70;99.90
52531;DHT22;38441;52.894;6.040;2024-01-30T08:41:28;7.70;99.90
52531;DHT22;38441;52.894;6.040;2024-01-30T08:48:46;7.70;99.90
52531;DHT22;38441;52.894;6.040;2024-01-30T08:51:13;7.80;99.90
52531;DHT22;38441;52.894;6.040;2024-01-30T08:53:39;7.80;99.90
52531;DHT22;38441;52.894;6.040;2024-01-30T08:56:06;7.80;99.90
52531;DHT22;38441;52.894;6.040;2024-01-30T09:00:58;7.90;99.90
52531;DHT22;38441;52.894;6.040;2024-01-30T09:13:09;8.10;99.90
52531;DHT22;38441;52.894;6.040;2024-01-30T09:15:35;8.20;99.90
52531;DHT22;38441;52.894;6.040;2024-01-30T09:18:01;8.20;99.90
52531;DHT22;38441;52.894;6.040;2024-01-30T09:20:26;8.20;99.90
52531;DHT22;38441;52.894;6.040;2024-01-30T09:22:52;8.20;99.90
52531;DHT22;38441;52.894;6.040;2024-01-30T09:25:17;8.30;99.90
52531;DHT22;38441;52.894;6.040;2024-01-30T09:27:44;8.40;99.90
52531;DHT22;38441;52.894;6.040;2024-01-30T09:30:10;8.40;99.90
52531;DHT22;38441;52.894;6.040;2024-01-30T09:32:40;8.50;99.90
52531;DHT22;38441;52.894;6.040;2024-01-30T09:35:05;8.50;99.90
52531;DHT22;38441;52.894;6.040;2024-01-30T09:37:31;8.40;99.90
52531;DHT22;38441;52.894;6.040;2024-01-30T09:39:57;8.50;99.90
52531;DHT22;38441;52.894;6.040;2024-01-30T09:45:05;8.70;99.90
52531;DHT22;38441;52.894;6.040;2024-01-30T09:47:42;8.80;99.90
52531;DHT22;38441;52.894;6.040;2024-01-30T09:50:11;8.80;99.90
52531;DHT22;38441;52.894;6.040;2024-01-30T09:52:37;9.00;99.90
52531;DHT22;38441;52.894;6.040;2024-01-30T09:55:03;8.90;99.90
52531;DHT22;38441;52.894;6.040;2024-01-30T09:57:29;9.00;99.90
52531;DHT22;38441;52.894;6.040;2024-01-30T09:59:55;9.00;99.90
52531;DHT22;38441;52.894;6.040;2024-01-30T10:02:21;9.00;99.90
52531;DHT22;38441;52.894;6.040;2024-01-30T10:04:51;9.10;99.90
52531;DHT22;38441;52.894;6.040;2024-01-30T10:07:18;8.90;99.90
52531;DHT22;38441;52.894;6.040;2024-01-30T10:09:44;9.00;99.90
52531;DHT22;38441;52.894;6.040;2024-01-30T10:12:11;9.00;99.90
52531;DHT22;38441;52.894;6.040;2024-01-30T10:14:41;9.10;99.90
52531;DHT22;38441;52.894;6.040;2024-01-30T10:17:11;9.30;99.90
52531;DHT22;38441;52.894;6.040;2024-01-30T10:19:38;9.10;99.90
52531;DHT22;38441;52.894;6.040;2024-01-30T10:22:04;9.20;99.90
52531;DHT22;38441;52.894;6.040;2024-01-30T10:24:30;9.30;99.90
52531;DHT22;38441;52.894;6.040;2024-01-30T10:26:56;9.00;99.90
52531;DHT22;38441;52.894;6.040;2024-01-30T10:29:22;9.20;99.90
52531;DHT22;38441;52.894;6.040;2024-01-30T10:32:04;9.20;99.90
52531;DHT22;38441;52.894;6.040;2024-01-30T10:34:31;9.40;99.90
52531;DHT22;38441;52.894;6.040;2024-01-30T10:37:08;9.40;99.90
52531;DHT22;38441;52.894;6.040;2024-01-30T10:39:46;9.50;99.90
52531;DHT22;38441;52.894;6.040;2024-01-30T10:42:14;9.40;99.90
52531;DHT22;38441;52.894;6.040;2024-01-30T10:45:08;9.50;99.90
52531;DHT22;38441;52.894;6.040;2024-01-30T10:47:35;9.60;99.90
52531;DHT22;38441;52.894;6.040;2024-01-30T10:50:04;9.70;99.90
52531;DHT22;38441;52.894;6.040;2024-01-30T10:52:31;9.70;99.90
52531;DHT22;38441;52.894;6.040;2024-01-30T10:54:58;9.80;99.90
52531;DHT22;38441;52.894;6.040;2024-01-30T10:57:25;9.70;99.90
52531;DHT22;38441;52.894;6.040;2024-01-30T11:00:11;9.80;99.90
52531;DHT22;38441;52.894;6.040;2024-01-30T11:02:43;9.80;99.90
52531;DHT22;38441;52.894;6.040;2024-01-30T11:05:10;9.70;99.90
52531;DHT22;38441;52.894;6.040;2024-01-30T11:07:36;9.60;99.90
52531;DHT22;38441;52.894;6.040;2024-01-30T11:10:04;9.70;99.90
52531;DHT22;38441;52.894;6.040;2024-01-30T11:12:38;9.80;99.90
52531;DHT22;38441;52.894;6.040;2024-01-30T11:15:13;9.50;99.90
52531;DHT22;38441;52.894;6.040;2024-01-30T11:17:42;9.30;99.90
52531;DHT22;38441;52.894;6.040;2024-01-30T11:20:29;9.40;99.90
52531;DHT22;38441;52.894;6.040;2024-01-30T11:22:57;9.50;99.90
52531;DHT22;38441;52.894;6.040;2024-01-30T11:25:23;9.30;99.90
52531;DHT22;38441;52.894;6.040;2024-01-30T11:27:51;9.50;99.90
52531;DHT22;38441;52.894;6.040;2024-01-30T11:30:26;9.40;99.90
52531;DHT22;38441;52.894;6.040;2024-01-30T11:33:06;9.40;99.90
52531;DHT22;38441;52.894;6.040;2024-01-30T11:35:35;9.30;99.90
52531;DHT22;38441;52.894;6.040;2024-01-30T11:38:02;9.30;99.90
52531;DHT22;38441;52.894;6.040;2024-01-30T11:40:28;9.30;99.90
52531;DHT22;38441;52.894;6.040;2024-01-30T11:42:55;9.20;99.90
52531;DHT22;38441;52.894;6.040;2024-01-30T11:45:21;9.20;99.90
52531;DHT22;38441;52.894;6.040;2024-01-30T11:50:13;9.40;99.90
52531;DHT22;38441;52.894;6.040;2024-01-30T11:52:39;9.30;99.90
52531;DHT22;38441;52.894;6.040;2024-01-30T11:55:05;9.40;99.90
52531;DHT22;38441;52.894;6.040;2024-01-30T11:57:31;9.50;99.90
52531;DHT22;38441;52.894;6.040;2024-01-30T11:59:57;9.30;99.90
52531;DHT22;38441;52.894;6.040;2024-01-30T12:02:23;9.20;99.90
52531;DHT22;38441;52.894;6.040;2024-01-30T12:04:48;9.30;99.90
52531;DHT22;38441;52.894;6.040;2024-01-30T12:07:14;9.30;99.90
52531;DHT22;38441;52.894;6.040;2024-01-30T12:09:42;9.40;99.90
52531;DHT22;38441;52.894;6.040;2024-01-30T12:12:08;9.30;99.90
52531;DHT22;38441;52.894;6.040;2024-01-30T12:14:38;9.50;99.90
52531;DHT22;38441;52.894;6.040;2024-01-30T12:17:04;9.30;99.90
52531;DHT22;38441;52.894;6.040;2024-01-30T12:19:30;9.30;99.90
52531;DHT22;38441;52.894;6.040;2024-01-30T12:21:59;9.20;99.90
52531;DHT22;38441;52.894;6.040;2024-01-30T12:24:25;9.40;99.90
52531;DHT22;38441;52.894;6.040;2024-01-30T12:26:52;9.20;99.90
52531;DHT22;38441;52.894;6.040;2024-01-30T12:29:20;9.30;99.90
52531;DHT22;38441;52.894;6.040;2024-01-30T12:31:46;9.20;99.90
52531;DHT22;38441;52.894;6.040;2024-01-30T12:34:14;9.50;99.90
52531;DHT22;38441;52.894;6.040;2024-01-30T12:36:42;9.20;99.90
52531;DHT22;38441;52.894;6.040;2024-01-30T12:39:11;9.40;99.90
52531;DHT22;38441;52.894;6.040;2024-01-30T12:41:38;9.40;99.90
52531;DHT22;38441;52.894;6.040;2024-01-30T12:44:04;9.40;99.90
52531;DHT22;38441;52.894;6.040;2024-01-30T12:46:30;9.50;99.90
52531;DHT22;38441;52.894;6.040;2024-01-30T12:48:55;9.40;99.90
52531;DHT22;38441;52.894;6.040;2024-01-30T12:51:21;9.50;99.90
52531;DHT22;38441;52.894;6.040;2024-01-30T12:53:46;9.60;99.90
52531;DHT22;38441;52.894;6.040;2024-01-30T12:58:40;9.50;99.90
52531;DHT22;38441;52.894;6.040;2024-01-30T13:01:08;9.50;99.90
52531;DHT22;38441;52.894;6.040;2024-01-30T13:03:34;9.50;99.90
52531;DHT22;38441;52.894;6.040;2024-01-30T13:06:00;9.60;99.90
52531;DHT22;38441;52.894;6.040;2024-01-30T13:08:26;9.50;99.90
52531;DHT22;38441;52.894;6.040;2024-01-30T13:10:51;9.30;99.90
52531;DHT22;38441;52.894;6.040;2024-01-30T13:13:17;9.50;99.90
52531;DHT22;38441;52.894;6.040;2024-01-30T13:15:43;9.50;99.90
52531;DHT22;38441;52.894;6.040;2024-01-30T13:18:08;9.30;99.90
52531;DHT22;38441;52.894;6.040;2024-01-30T13:20:34;9.40;99.90
52531;DHT22;38441;52.894;6.040;2024-01-30T13:22:59;9.40;99.90
52531;DHT22;38441;52.894;6.040;2024-01-30T13:25:25;9.40;99.90
52531;DHT22;38441;52.894;6.040;2024-01-30T13:27:51;9.30;99.90
52531;DHT22;38441;52.894;6.040;2024-01-30T13:30:17;9.30;99.90
52531;DHT22;38441;52.894;6.040;2024-01-30T13:32:42;9.40;99.90
52531;DHT22;38441;52.894;6.040;2024-01-30T13:35:09;9.40;99.90
52531;DHT22;38441;52.894;6.040;2024-01-30T13:37:35;9.20;99.90
52531;DHT22;38441;52.894;6.040;2024-01-30T13:40:03;9.20;99.90
52531;DHT22;38441;52.894;6.040;2024-01-30T13:42:32;9.10;99.90
52531;DHT22;38441;52.894;6.040;2024-01-30T13:45:04;9.00;99.90
52531;DHT22;38441;52.894;6.040;2024-01-30T13:47:29;8.60;99.90
52531;DHT22;38441;52.894;6.040;2024-01-30T13:49:55;9.00;99.90
52531;DHT22;38441;52.894;6.040;2024-01-30T13:52:20;8.90;99.90
52531;DHT22;38441;52.894;6.040;2024-01-30T13:54:46;8.90;99.90
52531;DHT22;38441;52.894;6.040;2024-01-30T13:57:12;8.90;99.90
52531;DHT22;38441;52.894;6.040;2024-01-30T13:59:38;8.90;99.90
52531;DHT22;38441;52.894;6.040;2024-01-30T14:02:04;8.80;99.90
52531;DHT22;38441;52.894;6.040;2024-01-30T14:04:31;9.10;99.90
52531;DHT22;38441;52.894;6.040;2024-01-30T14:06:56;8.80;99.90
52531;DHT22;38441;52.894;6.040;2024-01-30T14:09:22;8.90;99.90
52531;DHT22;38441;52.894;6.040;2024-01-30T14:11:48;8.80;99.90
52531;DHT22;38441;52.894;6.040;2024-01-30T14:14:13;8.80;99.90
52531;DHT22;38441;52.894;6.040;2024-01-30T14:16:39;8.80;99.90
52531;DHT22;38441;52.894;6.040;2024-01-30T14:19:05;8.70;99.90
52531;DHT22;38441;52.894;6.040;2024-01-30T14:21:31;8.70;99.90
52531;DHT22;38441;52.894;6.040;2024-01-30T14:26:23;8.70;99.90
52531;DHT22;38441;52.894;6.040;2024-01-30T14:28:49;8.60;99.90
52531;DHT22;38441;52.894;6.040;2024-01-30T14:31:14;8.60;99.90
52531;DHT22;38441;52.894;6.040;2024-01-30T14:33:42;8.60;99.90
52531;DHT22;38441;52.894;6.040;2024-01-30T14:36:07;8.60;99.90
52531;DHT22;38441;52.894;6.040;2024-01-30T14:38:34;8.70;99.90
52531;DHT22;38441;52.894;6.040;2024-01-30T14:45:52;8.60;99.90
52531;DHT22;38441;52.894;6.040;2024-01-30T14:48:18;8.60;99.90
52531;DHT22;38441;52.894;6.040;2024-01-30T14:50:43;8.60;99.90
52531;DHT22;38441;52.894;6.040;2024-01-30T14:53:09;8.50;99.90
52531;DHT22;38441;52.894;6.040;2024-01-30T14:55:35;8.50;99.90
52531;DHT22;38441;52.894;6.040;2024-01-30T14:58:00;8.50;99.90
52531;DHT22;38441;52.894;6.040;2024-01-30T15:00:27;8.50;99.90
52531;DHT22;38441;52.894;6.040;2024-01-30T15:02:53;8.40;99.90
52531;DHT22;38441;52.894;6.040;2024-01-30T15:05:19;8.50;99.90
52531;DHT22;38441;52.894;6.040;2024-01-30T15:07:44;8.40;99.90
52531;DHT22;38441;52.894;6.040;2024-01-30T15:10:10;8.50;99.90
52531;DHT22;38441;52.894;6.040;2024-01-30T15:12:36;8.40;99.90
52531;DHT22;38441;52.894;6.040;2024-01-30T15:15:02;8.40;99.90
52531;DHT22;38441;52.894;6.040;2024-01-30T15:17:28;8.40;99.90
52531;DHT22;38441;52.894;6.040;2024-01-30T15:19:54;8.40;99.90
52531;DHT22;38441;52.894;6.040;2024-01-30T15:22:19;8.40;99.90
52531;DHT22;38441;52.894;6.040;2024-01-30T15:24:45;8.30;99.90
52531;DHT22;38441;52.894;6.040;2024-01-30T15:27:11;8.30;99.90
52531;DHT22;38441;52.894;6.040;2024-01-30T15:29:36;8.30;99.90
52531;DHT22;38441;52.894;6.040;2024-01-30T15:32:02;8.40;99.90
52531;DHT22;38441;52.894;6.040;2024-01-30T15:34:28;8.30;99.90
52531;DHT22;38441;52.894;6.040;2024-01-30T15:36:53;8.30;99.90
52531;DHT22;38441;52.894;6.040;2024-01-30T15:39:19;8.20;99.90
52531;DHT22;38441;52.894;6.040;2024-01-30T15:41:45;8.30;99.90
52531;DHT22;38441;52.894;6.040;2024-01-30T15:46:36;8.20;99.90
52531;DHT22;38441;52.894;6.040;2024-01-30T15:51:29;8.20;99.90
52531;DHT22;38441;52.894;6.040;2024-01-30T15:53:55;8.10;99.90
52531;DHT22;38441;52.894;6.040;2024-01-30T15:56:21;8.10;99.90
52531;DHT22;38441;52.894;6.040;2024-01-30T15:58:47;8.10;99.90
52531;DHT22;38441;52.894;6.040;2024-01-30T16:01:15;8.10;99.90
52531;DHT22;38441;52.894;6.040;2024-01-30T16:03:42;8.10;99.90
52531;DHT22;38441;52.894;6.040;2024-01-30T16:06:13;8.00;99.90
52531;DHT22;38441;52.894;6.040;2024-01-30T16:08:39;8.10;99.90
52531;DHT22;38441;52.894;6.040;2024-01-30T16:11:06;7.90;99.90
52531;DHT22;38441;52.894;6.040;2024-01-30T16:13:33;8.00;99.90
52531;DHT22;38441;52.894;6.040;2024-01-30T16:16:00;8.00;99.90
52531;DHT22;38441;52.894;6.040;2024-01-30T16:18:26;7.90;99.90
52531;DHT22;38441;52.894;6.040;2024-01-30T16:20:52;7.90;99.90
52531;DHT22;38441;52.894;6.040;2024-01-30T16:25:44;7.80;99.90
52531;DHT22;38441;52.894;6.040;2024-01-30T16:28:09;7.80;99.90
52531;DHT22;38441;52.894;6.040;2024-01-30T16:30:35;7.70;99.90
52531;DHT22;38441;52.894;6.040;2024-01-30T16:33:01;7.70;99.90
52531;DHT22;38441;52.894;6.040;2024-01-30T16:35:26;7.80;99.90
52531;DHT22;38441;52.894;6.040;2024-01-30T16:37:52;7.70;99.90
52531;DHT22;38441;52.894;6.040;2024-01-30T16:42:43;7.70;99.90
52531;DHT22;38441;52.894;6.040;2024-01-30T16:45:09;7.60;99.90
52531;DHT22;38441;52.894;6.040;2024-01-30T16:47:35;7.60;99.90
52531;DHT22;38441;52.894;6.040;2024-01-30T16:50:00;7.60;99.90
52531;DHT22;38441;52.894;6.040;2024-01-30T16:54:53;7.30;99.90
52531;DHT22;38441;52.894;6.040;2024-01-30T16:57:19;7.50;99.90
52531;DHT22;38441;52.894;6.040;2024-01-30T17:02:10;7.40;99.90
52531;DHT22;38441;52.894;6.040;2024-01-30T17:04:37;7.40;99.90
52531;DHT22;38441;52.894;6.040;2024-01-30T17:07:03;7.50;99.90
52531;DHT22;38441;52.894;6.040;2024-01-30T17:14:21;7.40;99.90
52531;DHT22;38441;52.894;6.040;2024-01-30T17:16:46;7.40;99.90
52531;DHT22;38441;52.894;6.040;2024-01-30T17:21:40;7.40;99.90
52531;DHT22;38441;52.894;6.040;2024-01-30T17:24:06;7.30;99.90
52531;DHT22;38441;52.894;6.040;2024-01-30T17:28:58;7.30;99.90
52531;DHT22;38441;52.894;6.040;2024-01-30T17:31:24;7.30;99.90
52531;DHT22;38441;52.894;6.040;2024-01-30T17:38:42;7.20;99.90
52531;DHT22;38441;52.894;6.040;2024-01-30T17:41:08;7.30;99.90
52531;DHT22;38441;52.894;6.040;2024-01-30T17:46:00;7.20;99.90
52531;DHT22;38441;52.894;6.040;2024-01-30T17:48:25;7.20;99.90
52531;DHT22;38441;52.894;6.040;2024-01-30T17:50:51;7.20;99.90
52531;DHT22;38441;52.894;6.040;2024-01-30T17:55:43;7.20;99.90
52531;DHT22;38441;52.894;6.040;2024-01-30T17:58:09;7.10;99.90
52531;DHT22;38441;52.894;6.040;2024-01-30T18:03:01;7.10;99.90
52531;DHT22;38441;52.894;6.040;2024-01-30T18:05:27;7.10;99.90
52531;DHT22;38441;52.894;6.040;2024-01-30T18:10:18;7.10;99.90
52531;DHT22;38441;52.894;6.040;2024-01-30T18:12:47;7.20;99.90
52531;DHT22;38441;52.894;6.040;2024-01-30T18:15:13;7.10;99.90
52531;DHT22;38441;52.894;6.040;2024-01-30T18:17:39;7.10;99.90
52531;DHT22;38441;52.894;6.040;2024-01-30T18:20:05;7.00;99.90
52531;DHT22;38441;52.894;6.040;2024-01-30T18:22:31;7.10;99.90
52531;DHT22;38441;52.894;6.040;2024-01-30T18:24:57;7.10;99.90
52531;DHT22;38441;52.894;6.040;2024-01-30T18:27:23;7.00;99.90
52531;DHT22;38441;52.894;6.040;2024-01-30T18:51:48;7.00;99.90
52531;DHT22;38441;52.894;6.040;2024-01-30T18:54:14;6.80;99.90
52531;DHT22;38441;52.894;6.040;2024-01-30T18:59:06;6.90;99.90
52531;DHT22;38441;52.894;6.040;2024-01-30T19:01:31;6.80;99.90
52531;DHT22;38441;52.894;6.040;2024-01-30T19:03:58;6.80;99.90
52531;DHT22;38441;52.894;6.040;2024-01-30T19:11:19;6.70;99.90
52531;DHT22;38441;52.894;6.040;2024-01-30T19:13:45;6.80;99.90
52531;DHT22;38441;52.894;6.040;2024-01-30T19:16:10;6.80;99.90
52531;DHT22;38441;52.894;6.040;2024-01-30T19:18:36;6.70;99.90
52531;DHT22;38441;52.894;6.040;2024-01-30T19:23:29;6.90;99.90
52531;DHT22;38441;52.894;6.040;2024-01-30T19:25:54;6.80;99.90
52531;DHT22;38441;52.894;6.040;2024-01-30T19:33:12;6.70;99.90
52531;DHT22;38441;52.894;6.040;2024-01-30T19:38:04;6.50;99.90
52531;DHT22;38441;52.894;6.040;2024-01-30T19:52:41;6.60;99.90
52531;DHT22;38441;52.894;6.040;2024-01-30T19:55:09;6.50;99.90
52531;DHT22;38441;52.894;6.040;2024-01-30T19:57:34;6.50;99.90
52531;DHT22;38441;52.894;6.040;2024-01-30T20:02:26;6.60;99.90
52531;DHT22;38441;52.894;6.040;2024-01-30T20:04:53;6.30;99.90
52531;DHT22;38441;52.894;6.040;2024-01-30T20:07:20;6.50;99.90
52531;DHT22;38441;52.894;6.040;2024-01-30T20:09:45;6.50;99.90
52531;DHT22;38441;52.894;6.040;2024-01-30T20:19:44;6.30;99.90
52531;DHT22;38441;52.894;6.040;2024-01-30T20:24:36;6.20;99.90
52531;DHT22;38441;52.894;6.040;2024-01-30T20:27:02;6.40;99.90
52531;DHT22;38441;52.894;6.040;2024-01-30T20:29:27;6.40;99.90
52531;DHT22;38441;52.894;6.040;2024-01-30T20:31:54;6.30;99.90
52531;DHT22;38441;52.894;6.040;2024-01-30T20:34:20;6.20;99.90
52531;DHT22;38441;52.894;6.040;2024-01-30T20:36:45;6.30;99.90
52531;DHT22;38441;52.894;6.040;2024-01-30T20:41:42;6.20;99.90
52531;DHT22;38441;52.894;6.040;2024-01-30T20:44:09;6.30;99.90
52531;DHT22;38441;52.894;6.040;2024-01-30T20:46:35;6.40;99.90
52531;DHT22;38441;52.894;6.040;2024-01-30T20:51:27;6.20;99.90
52531;DHT22;38441;52.894;6.040;2024-01-30T20:53:55;6.20;99.90
52531;DHT22;38441;52.894;6.040;2024-01-30T20:56:21;6.30;99.90
52531;DHT22;38441;52.894;6.040;2024-01-30T21:03:40;6.10;99.90
52531;DHT22;38441;52.894;6.040;2024-01-30T21:06:07;6.00;99.90
52531;DHT22;38441;52.894;6.040;2024-01-30T21:08:34;6.00;99.90
52531;DHT22;38441;52.894;6.040;2024-01-30T21:10:59;6.00;99.90